Time;durP1;ratioP1;P1;durP2;ratioP2;P2;SDS_P1;SDS_P2;PMS_P1;PMS_P2;Temp;Humidity;BMP_temperature;BMP_pressure;BME280_temperature;BME280_humidity;BME280_pressure;Samples;Min_cycle;Max_cycle;Signal;HPM_P1;HPM_P2
2022/10/05 00:02:21;;;;;;;10.68;6.40;;;15.40;99.90;;;;;;5114974;27;20398;-73
2022/10/05 00:04:47;;;;;;;10.57;6.60;;;15.40;99.90;;;;;;5130171;27;20801;-73
2022/10/05 00:07:15;;;;;;;10.97;6.60;;;15.40;99.90;;;;;;5116327;27;20464;-73
2022/10/05 00:09:41;;;;;;;8.93;5.97;;;15.40;99.90;;;;;;5119221;27;20404;-73
2022/10/05 00:12:18;;;;;;;8.55;6.03;;;15.40;99.90;;;;;;5109384;28;21009;-73
2022/10/05 00:14:47;;;;;;;11.43;6.60;;;15.40;99.90;;;;;;5109843;28;20406;-73
2022/10/05 00:17:24;;;;;;;10.30;6.05;;;15.50;99.90;;;;;;5109284;27;20427;-73
2022/10/05 00:19:51;;;;;;;9.93;6.13;;;15.50;99.90;;;;;;5109798;27;20492;-73
2022/10/05 00:22:21;;;;;;;10.30;5.85;;;15.50;99.90;;;;;;5122089;27;20424;-73
2022/10/05 00:24:50;;;;;;;9.68;5.78;;;15.50;99.90;;;;;;5108910;28;20408;-73
2022/10/05 00:27:19;;;;;;;10.23;5.88;;;15.50;99.90;;;;;;5107676;27;20408;-73
2022/10/05 00:29:46;;;;;;;10.15;5.88;;;15.40;99.90;;;;;;5124596;27;20398;-73
2022/10/05 00:32:12;;;;;;;9.00;5.97;;;15.50;99.90;;;;;;5129329;27;20418;-73
2022/10/05 00:34:38;;;;;;;9.88;5.95;;;15.50;99.90;;;;;;5128662;27;20814;-73
2022/10/05 00:37:05;;;;;;;10.17;5.23;;;15.40;99.90;;;;;;5128805;27;20406;-74
2022/10/05 00:39:32;;;;;;;9.02;5.30;;;15.40;99.90;;;;;;5128893;27;20391;-73
2022/10/05 00:42:22;;;;;;;11.52;5.72;;;15.40;99.90;;;;;;5129067;27;20395;-73
2022/10/05 00:44:56;;;;;;;10.63;6.40;;;15.40;99.90;;;;;;5128249;27;20395;-73
2022/10/05 00:47:30;;;;;;;8.33;5.80;;;15.50;99.90;;;;;;5128753;27;21015;-73
2022/10/05 00:50:14;;;;;;;9.20;6.20;;;15.40;99.90;;;;;;5103611;27;20904;-73
2022/10/05 00:53:01;;;;;;;9.13;5.80;;;15.50;99.90;;;;;;5128719;27;20419;-73
2022/10/05 00:55:54;;;;;;;10.07;6.35;;;15.50;99.90;;;;;;5128510;27;20414;-72
2022/10/05 00:58:54;;;;;;;9.20;5.30;;;15.50;99.90;;;;;;5117991;27;20458;-72
2022/10/05 01:01:54;;;;;;;8.13;5.50;;;15.50;99.90;;;;;;5109047;28;20396;-72
2022/10/05 01:04:45;;;;;;;9.10;5.32;;;15.50;99.90;;;;;;5088941;28;20495;-72
2022/10/05 01:07:16;;;;;;;9.40;5.60;;;15.40;99.90;;;;;;5096972;28;20416;-72
2022/10/05 01:10:00;;;;;;;9.57;5.63;;;15.40;99.90;;;;;;5108594;28;20503;-72
2022/10/05 01:12:37;;;;;;;10.13;5.55;;;15.40;99.90;;;;;;5108359;28;20460;-72
2022/10/05 01:15:23;;;;;;;8.00;4.90;;;15.40;99.90;;;;;;5108931;27;20400;-72
2022/10/05 01:18:01;;;;;;;7.57;4.75;;;15.40;99.90;;;;;;5108353;28;20473;-72
2022/10/05 01:20:41;;;;;;;8.75;5.07;;;15.40;99.90;;;;;;5108223;28;20396;-73
2022/10/05 01:23:26;;;;;;;8.35;4.88;;;15.40;99.90;;;;;;5107603;28;20421;-72
2022/10/05 01:26:21;;;;;;;7.78;4.93;;;15.30;99.90;;;;;;5107621;28;20451;-72
2022/10/05 01:29:05;;;;;;;8.88;4.82;;;15.30;99.90;;;;;;5102651;27;20425;-72
2022/10/05 01:31:36;;;;;;;8.27;5.32;;;15.30;99.90;;;;;;5125352;27;20422;-72
2022/10/05 01:34:27;;;;;;;8.53;4.90;;;15.30;99.90;;;;;;5127897;27;20494;-72
2022/10/05 01:37:11;;;;;;;8.17;5.10;;;15.30;99.90;;;;;;5114448;27;20754;-72
2022/10/05 01:40:06;;;;;;;7.10;4.73;;;15.20;99.90;;;;;;5125848;27;20946;-72
2022/10/05 01:42:31;;;;;;;9.38;5.03;;;15.20;99.90;;;;;;5126930;27;20904;-72
2022/10/05 01:45:35;;;;;;;9.70;5.07;;;15.30;99.90;;;;;;5116385;27;20439;-72
2022/10/05 01:48:08;;;;;;;8.35;4.97;;;15.30;99.90;;;;;;5101817;28;20740;-72
2022/10/05 01:50:57;;;;;;;7.73;4.87;;;15.30;99.90;;;;;;5113808;27;20902;-72
2022/10/05 01:53:41;;;;;;;9.20;5.13;;;15.20;99.90;;;;;;5123219;27;20787;-72
2022/10/05 01:56:33;;;;;;;9.13;4.78;;;15.20;99.90;;;;;;5119557;27;20442;-72
2022/10/05 01:59:14;;;;;;;7.73;4.53;;;15.30;99.90;;;;;;5090793;28;20475;-72
2022/10/05 02:01:57;;;;;;;6.22;4.55;;;15.20;99.90;;;;;;5125795;27;20405;-72
2022/10/05 02:04:33;;;;;;;7.07;4.60;;;15.30;99.90;;;;;;5107593;27;20486;-72
2022/10/05 02:07:02;;;;;;;6.57;4.20;;;15.20;99.90;;;;;;5127543;27;20399;-73
2022/10/05 02:09:34;;;;;;;8.70;4.75;;;15.20;99.90;;;;;;5127360;27;20403;-72
2022/10/05 02:12:05;;;;;;;7.50;4.28;;;15.20;99.90;;;;;;5127552;27;20843;-72
2022/10/05 02:14:37;;;;;;;7.43;4.00;;;15.20;99.90;;;;;;5112895;27;20412;-73
2022/10/05 02:17:10;;;;;;;7.15;4.10;;;15.30;99.90;;;;;;5108044;28;20954;-73
2022/10/05 02:19:46;;;;;;;8.00;4.40;;;15.20;99.90;;;;;;5089364;28;20504;-73
2022/10/05 02:22:27;;;;;;;7.28;4.03;;;15.20;99.90;;;;;;5121298;27;20805;-72
2022/10/05 02:24:57;;;;;;;7.45;4.22;;;15.30;99.90;;;;;;5107219;28;20404;-72
2022/10/05 02:27:28;;;;;;;6.20;4.10;;;15.20;99.90;;;;;;5108004;28;20407;-72
2022/10/05 02:30:00;;;;;;;7.63;4.05;;;15.20;99.90;;;;;;5107100;28;20396;-72
2022/10/05 02:32:33;;;;;;;7.00;3.45;;;15.20;99.90;;;;;;5102701;27;20418;-72
2022/10/05 02:35:06;;;;;;;6.43;3.65;;;15.20;99.90;;;;;;5126972;27;20398;-72
2022/10/05 02:37:56;;;;;;;6.18;3.63;;;15.20;99.90;;;;;;5127643;27;20943;-72
2022/10/05 02:40:40;;;;;;;5.78;3.92;;;15.20;99.90;;;;;;5127110;27;20407;-72
2022/10/05 02:43:05;;;;;;;6.75;4.30;;;15.20;99.90;;;;;;5126276;27;20819;-73
2022/10/05 02:45:45;;;;;;;6.53;3.97;;;15.20;99.90;;;;;;5127866;27;20395;-72
2022/10/05 02:48:29;;;;;;;6.88;4.20;;;15.20;99.90;;;;;;5126006;27;20463;-73
2022/10/05 02:51:22;;;;;;;7.63;4.38;;;15.20;99.90;;;;;;5124301;27;20895;-73
2022/10/05 02:54:13;;;;;;;7.07;4.57;;;15.20;99.90;;;;;;5120853;27;20910;-73
2022/10/05 02:57:09;;;;;;;7.87;4.40;;;15.10;99.90;;;;;;5130233;27;20789;-73
2022/10/05 02:59:40;;;;;;;7.85;4.38;;;15.10;99.90;;;;;;5131142;27;20406;-73
2022/10/05 03:02:30;;;;;;;6.75;4.28;;;15.10;99.90;;;;;;5131089;27;20425;-73
2022/10/05 03:05:14;;;;;;;6.65;4.43;;;15.10;99.90;;;;;;5115733;27;20467;-74
2022/10/05 03:08:02;;;;;;;6.67;4.47;;;15.10;99.90;;;;;;5140635;27;20394;-74
2022/10/05 03:10:31;;;;;;;7.55;4.90;;;15.10;99.90;;;;;;5141561;27;20463;-74
2022/10/05 03:13:09;;;;;;;8.30;4.90;;;15.10;99.90;;;;;;5112610;27;20418;-74
2022/10/05 03:15:47;;;;;;;9.63;4.88;;;15.10;99.90;;;;;;5130942;27;20395;-74
2022/10/05 03:18:25;;;;;;;7.72;4.63;;;15.10;99.90;;;;;;5129649;27;20803;-73
2022/10/05 03:21:02;;;;;;;7.85;4.85;;;15.10;99.90;;;;;;5128800;27;20469;-73
2022/10/05 03:23:37;;;;;;;8.37;4.80;;;15.10;99.90;;;;;;5129882;27;20494;-73
2022/10/05 03:26:46;;;;;;;8.32;4.90;;;15.10;99.90;;;;;;5106988;27;20414;-73
2022/10/05 03:29:37;;;;;;;8.35;4.70;;;15.10;99.90;;;;;;5105928;27;20402;-73
2022/10/05 03:32:38;;;;;;;8.40;4.88;;;15.10;99.90;;;;;;5127636;27;20430;-74
2022/10/05 03:35:22;;;;;;;8.13;4.63;;;15.10;99.90;;;;;;5130056;27;20420;-73
2022/10/05 03:38:10;;;;;;;7.85;4.43;;;15.10;99.90;;;;;;5134382;27;20411;-73
2022/10/05 03:40:49;;;;;;;7.78;5.07;;;15.10;99.90;;;;;;5118878;27;20402;-72
2022/10/05 03:43:31;;;;;;;8.48;4.88;;;15.10;99.90;;;;;;5139998;27;20432;-73
2022/10/05 03:46:07;;;;;;;11.48;5.35;;;15.10;99.90;;;;;;5142711;27;20409;-72
2022/10/05 03:48:45;;;;;;;7.75;4.88;;;15.10;99.90;;;;;;5141724;27;20417;-72
2022/10/05 03:51:22;;;;;;;9.93;4.93;;;15.10;99.90;;;;;;5131219;27;20805;-73
2022/10/05 03:54:07;;;;;;;7.53;4.53;;;15.10;99.90;;;;;;5120925;27;20407;-72
2022/10/05 03:56:59;;;;;;;9.45;5.00;;;15.10;99.90;;;;;;5125777;27;20404;-73
2022/10/05 03:59:28;;;;;;;8.50;4.90;;;15.20;99.90;;;;;;5107323;28;20409;-72
2022/10/05 04:02:00;;;;;;;8.23;4.80;;;15.10;99.90;;;;;;5110921;28;20407;-73
2022/10/05 04:04:36;;;;;;;8.35;5.00;;;15.10;99.90;;;;;;5111017;28;20917;-73
2022/10/05 04:07:02;;;;;;;9.75;5.15;;;15.10;99.90;;;;;;5110077;28;20956;-73
2022/10/05 04:09:38;;;;;;;9.30;4.95;;;15.10;99.90;;;;;;5110330;28;20514;-73
2022/10/05 04:12:30;;;;;;;8.98;5.28;;;15.10;99.90;;;;;;5109010;27;20435;-73
2022/10/05 04:15:17;;;;;;;7.97;4.70;;;15.10;99.90;;;;;;5109655;27;20461;-73
2022/10/05 04:17:53;;;;;;;10.73;5.00;;;15.10;99.90;;;;;;5109940;27;20408;-73
2022/10/05 04:20:26;;;;;;;6.82;4.65;;;15.10;99.90;;;;;;5108340;27;20408;-73
2022/10/05 04:23:09;;;;;;;8.73;5.05;;;15.10;99.90;;;;;;5109844;27;20443;-73
2022/10/05 04:25:57;;;;;;;10.65;4.85;;;15.10;99.90;;;;;;5110047;27;20404;-73
2022/10/05 04:29:05;;;;;;;8.32;4.80;;;15.10;99.90;;;;;;5110030;27;20774;-73
2022/10/05 04:31:54;;;;;;;8.13;4.72;;;15.10;99.90;;;;;;5098637;28;20432;-73
2022/10/05 04:34:58;;;;;;;8.02;4.72;;;15.10;99.90;;;;;;5100219;27;20483;-73
2022/10/05 04:37:49;;;;;;;7.53;4.68;;;15.10;99.90;;;;;;5108489;27;20416;-73
2022/10/05 04:40:30;;;;;;;10.80;5.30;;;15.10;99.90;;;;;;5111150;27;20818;-73
2022/10/05 04:43:14;;;;;;;7.07;4.55;;;15.10;99.90;;;;;;5110825;27;20404;-73
2022/10/05 04:45:45;;;;;;;9.18;4.50;;;15.10;99.90;;;;;;5098041;28;20400;-73
2022/10/05 04:48:25;;;;;;;6.65;4.43;;;15.10;99.90;;;;;;5110797;27;20411;-73
2022/10/05 04:51:04;;;;;;;8.38;5.03;;;15.10;99.90;;;;;;5110299;27;20438;-73
2022/10/05 04:53:57;;;;;;;8.98;5.50;;;15.10;99.90;;;;;;5097448;27;20425;-73
2022/10/05 04:56:35;;;;;;;9.13;5.03;;;15.10;99.90;;;;;;5121307;27;20415;-72
2022/10/05 04:59:17;;;;;;;8.52;5.25;;;15.10;99.90;;;;;;5127299;27;20797;-73
2022/10/05 05:02:15;;;;;;;9.45;4.47;;;15.10;99.90;;;;;;5094285;28;20742;-73
2022/10/05 05:04:56;;;;;;;7.75;5.18;;;15.00;99.90;;;;;;5126395;27;20846;-73
2022/10/05 05:07:39;;;;;;;8.32;5.03;;;15.00;99.90;;;;;;5126977;27;20414;-73
2022/10/05 05:10:34;;;;;;;8.30;4.60;;;15.10;99.90;;;;;;5107617;28;20401;-72
2022/10/05 05:13:17;;;;;;;8.35;4.60;;;15.10;99.90;;;;;;5107706;27;20466;-73
2022/10/05 05:15:57;;;;;;;7.50;4.60;;;15.00;99.90;;;;;;5106882;28;20429;-73
2022/10/05 05:19:04;;;;;;;7.85;4.70;;;15.00;99.90;;;;;;5108357;27;20419;-73
2022/10/05 05:21:45;;;;;;;7.80;5.25;;;15.10;99.90;;;;;;5099277;28;20405;-73
2022/10/05 05:24:39;;;;;;;8.20;4.70;;;15.00;99.90;;;;;;5109220;27;20412;-72
2022/10/05 05:27:23;;;;;;;8.43;4.90;;;15.00;99.90;;;;;;5107896;27;20423;-73
2022/10/05 05:30:01;;;;;;;7.25;4.82;;;15.00;99.90;;;;;;5108278;28;20802;-73
2022/10/05 05:32:48;;;;;;;8.73;5.00;;;15.00;99.90;;;;;;5108301;28;20428;-73
2022/10/05 05:35:23;;;;;;;7.25;5.00;;;15.00;99.90;;;;;;5108449;27;20400;-74
2022/10/05 05:37:57;;;;;;;8.07;4.65;;;15.00;99.90;;;;;;5108344;27;20775;-73
2022/10/05 05:40:48;;;;;;;6.32;4.90;;;15.00;99.90;;;;;;5109069;27;20419;-72
2022/10/05 05:43:25;;;;;;;7.93;4.97;;;15.00;99.90;;;;;;5108770;28;20904;-72
2022/10/05 05:46:24;;;;;;;7.90;5.20;;;15.00;99.90;;;;;;5099608;27;20793;-72
2022/10/05 05:48:52;;;;;;;7.72;4.97;;;15.00;99.90;;;;;;5102563;28;20420;-73
2022/10/05 05:51:34;;;;;;;8.25;5.30;;;15.00;99.90;;;;;;5104896;28;20425;-73
2022/10/05 05:54:14;;;;;;;7.50;4.87;;;15.00;99.90;;;;;;5108680;28;20458;-73
2022/10/05 05:56:56;;;;;;;8.60;5.03;;;15.00;99.90;;;;;;5107887;28;20423;-72
2022/10/05 05:59:28;;;;;;;9.50;4.90;;;15.00;99.90;;;;;;5108153;28;20389;-73
2022/10/05 06:02:03;;;;;;;9.10;5.05;;;15.00;99.90;;;;;;5103432;28;20500;-72
2022/10/05 06:04:43;;;;;;;7.28;4.53;;;15.00;99.90;;;;;;5101889;28;20925;-72
2022/10/05 06:07:15;;;;;;;7.40;4.77;;;15.10;99.90;;;;;;5110014;27;20426;-73
2022/10/05 06:09:56;;;;;;;7.68;4.97;;;15.00;99.90;;;;;;5112427;28;20802;-72
2022/10/05 06:12:26;;;;;;;7.57;4.40;;;15.00;99.90;;;;;;5101337;28;20473;-73
2022/10/05 06:14:57;;;;;;;6.90;4.45;;;15.00;99.90;;;;;;5105717;28;20506;-72
2022/10/05 06:17:37;;;;;;;6.93;4.70;;;15.00;99.90;;;;;;5112813;28;20403;-72
2022/10/05 06:20:12;;;;;;;7.50;4.90;;;15.00;99.90;;;;;;5116631;27;20418;-73
2022/10/05 06:22:44;;;;;;;7.63;4.47;;;15.00;99.90;;;;;;5116146;27;20781;-72
2022/10/05 06:25:13;;;;;;;6.50;4.20;;;15.00;99.90;;;;;;5115515;27;20934;-73
2022/10/05 06:28:07;;;;;;;7.78;4.40;;;15.10;99.90;;;;;;5115039;27;20507;-73
2022/10/05 06:30:42;;;;;;;9.07;4.60;;;15.10;99.90;;;;;;5105237;28;20408;-73
2022/10/05 06:33:19;;;;;;;7.72;4.32;;;15.10;99.90;;;;;;5114368;27;20445;-73
2022/10/05 06:36:04;;;;;;;6.70;4.13;;;15.10;99.90;;;;;;5110292;27;20404;-73
2022/10/05 06:39:07;;;;;;;6.93;4.18;;;15.10;99.90;;;;;;5113496;27;20410;-72
2022/10/05 06:42:12;;;;;;;7.13;3.83;;;15.10;99.90;;;;;;5105600;27;20923;-72
2022/10/05 06:44:59;;;;;;;7.05;4.35;;;15.10;99.90;;;;;;5109108;27;20787;-73
2022/10/05 06:47:42;;;;;;;8.32;4.40;;;15.20;99.90;;;;;;5115614;27;20423;-73
2022/10/05 06:50:14;;;;;;;7.70;4.15;;;15.20;99.90;;;;;;5118273;27;20400;-72
2022/10/05 06:53:01;;;;;;;7.55;4.00;;;15.20;99.90;;;;;;5113177;27;20424;-72
2022/10/05 06:55:52;;;;;;;5.72;4.00;;;15.20;99.90;;;;;;5102262;28;20424;-73
2022/10/05 06:58:35;;;;;;;7.80;4.22;;;15.20;99.90;;;;;;5110667;27;20413;-73
2022/10/05 07:01:09;;;;;;;7.25;4.30;;;15.20;99.90;;;;;;5109506;28;20416;-72
2022/10/05 07:04:03;;;;;;;5.85;4.18;;;15.20;99.90;;;;;;5108058;28;20404;-72
2022/10/05 07:06:47;;;;;;;7.40;4.00;;;15.20;99.90;;;;;;5104341;27;20419;-72
2022/10/05 07:09:37;;;;;;;8.15;4.38;;;15.30;99.90;;;;;;5112546;27;20491;-72
2022/10/05 07:12:38;;;;;;;7.03;3.80;;;15.30;99.90;;;;;;5111672;27;20453;-73
2022/10/05 07:15:20;;;;;;;7.20;3.93;;;15.30;99.90;;;;;;5110408;27;20398;-73
2022/10/05 07:17:52;;;;;;;8.75;4.47;;;15.30;99.90;;;;;;5114125;27;20468;-73
2022/10/05 07:20:53;;;;;;;7.05;4.40;;;15.30;99.90;;;;;;5129611;27;20399;-72
2022/10/05 07:23:49;;;;;;;8.03;4.70;;;15.30;99.90;;;;;;5093637;27;20547;-72
2022/10/05 07:26:34;;;;;;;8.27;4.75;;;15.30;99.90;;;;;;5100978;27;20409;-72
2022/10/05 07:29:05;;;;;;;8.57;4.90;;;15.30;99.90;;;;;;5113543;27;20426;-74
2022/10/05 07:31:49;;;;;;;7.40;4.90;;;15.30;99.90;;;;;;5110798;28;20421;-72
2022/10/05 07:34:32;;;;;;;7.10;4.68;;;15.30;99.90;;;;;;5104906;28;20478;-73
2022/10/05 07:40:25;;;;;;;10.27;5.43;;;15.40;99.90;;;;;;5107873;28;20411;-73
2022/10/05 07:43:20;;;;;;;7.97;4.27;;;15.50;99.90;;;;;;5110598;28;20412;-73
2022/10/05 07:45:56;;;;;;;7.25;5.10;;;15.50;99.90;;;;;;5100366;28;20404;-73
2022/10/05 07:48:24;;;;;;;9.05;4.68;;;15.50;99.90;;;;;;5108478;28;20414;-73
2022/10/05 07:51:08;;;;;;;7.93;4.72;;;15.50;99.90;;;;;;5109333;28;20433;-73
2022/10/05 07:53:39;;;;;;;6.63;4.35;;;15.50;99.90;;;;;;5110567;28;20460;-73
2022/10/05 07:56:13;;;;;;;7.32;4.10;;;15.50;99.90;;;;;;5110024;28;20400;-73
2022/10/05 07:58:54;;;;;;;6.23;4.27;;;15.60;99.90;;;;;;5108440;28;20926;-73
2022/10/05 08:01:40;;;;;;;6.80;3.90;;;15.60;99.90;;;;;;5101985;28;20444;-72
2022/10/05 08:04:54;;;;;;;6.30;3.67;;;15.70;99.90;;;;;;5108983;28;20427;-73
2022/10/05 08:07:20;;;;;;;6.47;3.47;;;15.70;99.90;;;;;;5099417;27;20906;-73
2022/10/05 08:10:05;;;;;;;5.70;3.45;;;15.70;99.90;;;;;;5110042;28;20396;-73
2022/10/05 08:12:42;;;;;;;5.05;3.13;;;15.80;99.90;;;;;;5110129;28;20424;-73
2022/10/05 08:15:35;;;;;;;5.55;3.05;;;15.80;99.90;;;;;;5109555;28;20831;-73
2022/10/05 08:18:20;;;;;;;5.37;3.40;;;15.80;99.90;;;;;;5105764;28;20428;-73
2022/10/05 08:20:55;;;;;;;6.78;3.40;;;15.80;99.90;;;;;;5109753;28;20551;-73
2022/10/05 08:23:37;;;;;;;5.13;3.03;;;15.90;99.90;;;;;;5121088;27;20394;-73
2022/10/05 08:26:06;;;;;;;5.18;2.95;;;15.80;99.90;;;;;;5106738;28;20482;-73
2022/10/05 08:28:38;;;;;;;4.60;2.70;;;15.90;99.90;;;;;;5114271;27;20499;-73
2022/10/05 08:31:07;;;;;;;4.45;2.70;;;15.90;99.90;;;;;;5108339;28;20415;-73
2022/10/05 08:33:53;;;;;;;4.93;2.35;;;16.00;99.90;;;;;;5107610;28;20428;-74
2022/10/05 08:36:27;;;;;;;4.03;2.30;;;16.00;99.90;;;;;;5108169;27;20945;-74
2022/10/05 08:38:58;;;;;;;3.60;2.30;;;16.10;99.90;;;;;;5107097;28;20397;-74
2022/10/05 08:41:51;;;;;;;4.13;2.30;;;16.10;99.90;;;;;;5108751;28;21288;-74
2022/10/05 08:44:35;;;;;;;2.90;1.90;;;16.20;99.90;;;;;;5109504;28;20558;-73
2022/10/05 08:47:39;;;;;;;4.25;1.95;;;16.30;99.90;;;;;;5097074;28;20416;-73
2022/10/05 08:50:44;;;;;;;3.53;1.80;;;16.40;99.90;;;;;;5103175;28;20455;-73
2022/10/05 08:53:31;;;;;;;3.67;2.35;;;16.40;99.90;;;;;;5109988;27;20464;-73
2022/10/05 08:56:06;;;;;;;4.93;2.33;;;16.40;99.90;;;;;;5108394;28;20420;-73
2022/10/05 08:58:53;;;;;;;5.40;2.83;;;16.50;99.90;;;;;;5097224;28;20969;-73
2022/10/05 09:01:52;;;;;;;7.93;2.65;;;16.50;99.90;;;;;;5108933;28;20450;-72
2022/10/05 09:04:20;;;;;;;4.53;2.90;;;16.60;99.90;;;;;;5107331;28;20425;-71
2022/10/05 09:07:08;;;;;;;4.22;2.65;;;16.70;99.90;;;;;;5098455;28;20898;-73
2022/10/05 09:09:56;;;;;;;5.47;2.92;;;16.70;99.90;;;;;;5108996;28;20430;-72
2022/10/05 09:12:37;;;;;;;5.32;3.00;;;16.80;99.90;;;;;;5107967;28;20424;-72
2022/10/05 09:15:40;;;;;;;3.50;2.42;;;16.80;99.90;;;;;;5108450;28;20766;-72
2022/10/05 09:18:31;;;;;;;5.00;2.95;;;16.90;99.90;;;;;;5096209;28;20936;-73
2022/10/05 09:21:31;;;;;;;4.47;2.70;;;16.90;99.90;;;;;;5107206;28;20968;-72
2022/10/05 09:24:13;;;;;;;4.70;2.85;;;17.00;99.90;;;;;;5088709;28;20424;-72
2022/10/05 09:26:59;;;;;;;5.15;2.72;;;17.10;99.90;;;;;;5107634;28;20503;-72
2022/10/05 09:29:43;;;;;;;4.78;3.00;;;17.30;99.90;;;;;;5087568;28;20445;-72
2022/10/05 09:32:26;;;;;;;5.30;2.33;;;17.40;99.90;;;;;;5106591;28;20428;-72
2022/10/05 09:35:23;;;;;;;5.40;2.60;;;17.40;99.90;;;;;;5113135;27;20544;-72
2022/10/05 09:37:48;;;;;;;4.03;2.20;;;17.50;99.90;;;;;;5103001;28;20840;-72
2022/10/05 09:40:59;;;;;;;5.33;2.50;;;17.60;99.90;;;;;;5110990;27;20403;-73
2022/10/05 09:43:52;;;;;;;6.68;2.33;;;17.60;99.90;;;;;;5107752;27;20411;-72
2022/10/05 09:46:51;;;;;;;5.18;2.40;;;17.50;99.90;;;;;;5102908;28;20412;-72
2022/10/05 09:49:41;;;;;;;4.30;2.10;;;17.50;99.90;;;;;;5104872;28;20428;-71
2022/10/05 09:52:20;;;;;;;4.25;2.03;;;17.40;99.90;;;;;;5115086;27;20430;-72
2022/10/05 09:55:08;;;;;;;5.53;2.20;;;17.50;99.90;;;;;;5112210;27;20400;-72
2022/10/05 09:58:05;;;;;;;4.85;1.90;;;17.50;99.90;;;;;;5110098;27;20432;-72
2022/10/05 10:00:36;;;;;;;3.70;1.85;;;17.50;99.90;;;;;;5102297;28;20429;-72
2022/10/05 10:03:05;;;;;;;5.50;2.00;;;17.60;99.90;;;;;;5115037;27;20405;-72
2022/10/05 10:05:42;;;;;;;4.00;1.95;;;17.60;99.90;;;;;;5124397;27;20422;-72
2022/10/05 10:08:29;;;;;;;4.47;1.80;;;17.60;99.90;;;;;;5102806;28;20405;-72
2022/10/05 10:10:57;;;;;;;4.85;1.85;;;17.60;99.90;;;;;;5104338;28;20979;-72
2022/10/05 10:13:52;;;;;;;4.50;2.00;;;17.70;99.90;;;;;;5123605;27;20430;-73
2022/10/05 10:16:40;;;;;;;3.67;1.70;;;17.70;99.90;;;;;;5117539;27;20414;-72
2022/10/05 10:19:30;;;;;;;4.20;1.98;;;17.70;99.90;;;;;;5106169;28;20415;-73
2022/10/05 10:22:15;;;;;;;4.35;1.70;;;17.70;99.90;;;;;;5106701;28;20423;-72
2022/10/05 10:25:21;;;;;;;4.23;1.60;;;17.70;99.90;;;;;;5107439;28;20427;-72
2022/10/05 10:28:08;;;;;;;3.47;1.50;;;17.70;99.90;;;;;;5127121;27;20411;-72
2022/10/05 10:30:51;;;;;;;4.43;1.40;;;17.70;99.90;;;;;;5124777;27;20425;-72
2022/10/05 10:33:26;;;;;;;3.60;1.55;;;17.70;99.90;;;;;;5118805;27;20460;-72
2022/10/05 10:36:10;;;;;;;3.27;1.53;;;17.70;99.90;;;;;;5107526;28;20430;-72
2022/10/05 10:38:57;;;;;;;4.10;1.70;;;17.70;99.90;;;;;;5115818;28;20920;-74
2022/10/05 10:41:47;;;;;;;4.97;1.83;;;17.60;99.90;;;;;;5113838;28;20420;-72
2022/10/05 10:44:16;;;;;;;3.50;1.95;;;17.50;99.90;;;;;;5113790;28;20561;-72
2022/10/05 10:47:11;;;;;;;4.25;1.48;;;17.40;99.90;;;;;;5115777;28;20409;-72
2022/10/05 10:49:52;;;;;;;3.30;1.42;;;17.50;99.90;;;;;;5112453;28;20404;-71
2022/10/05 10:52:30;;;;;;;3.47;1.58;;;17.40;99.90;;;;;;5109309;28;20422;-71
2022/10/05 10:55:08;;;;;;;3.30;1.30;;;17.40;99.90;;;;;;5108019;28;20417;-73
2022/10/05 10:57:52;;;;;;;4.93;1.50;;;17.30;99.90;;;;;;5108916;28;20401;-72
2022/10/05 11:00:44;;;;;;;4.07;1.50;;;17.30;99.90;;;;;;5105505;28;20412;-73
2022/10/05 11:03:50;;;;;;;2.77;1.70;;;17.30;99.90;;;;;;5106542;28;20404;-71
2022/10/05 11:06:40;;;;;;;2.85;1.73;;;17.30;99.90;;;;;;5103653;28;20424;-72
2022/10/05 11:09:23;;;;;;;3.58;1.80;;;17.30;99.90;;;;;;5107627;27;20971;-72
2022/10/05 11:12:16;;;;;;;3.05;1.20;;;17.30;99.90;;;;;;5107640;27;20620;-71
2022/10/05 11:14:48;;;;;;;3.13;1.70;;;17.30;99.90;;;;;;5070932;27;20422;-71
2022/10/05 11:17:30;;;;;;;3.30;1.83;;;17.30;99.90;;;;;;5118359;27;20429;-71
2022/10/05 11:20:02;;;;;;;4.45;1.70;;;17.30;99.90;;;;;;5117360;27;20423;-71
2022/10/05 11:22:34;;;;;;;2.67;1.42;;;17.30;99.90;;;;;;5110055;27;20513;-71
2022/10/05 11:25:16;;;;;;;3.03;1.77;;;17.30;99.90;;;;;;5119364;27;20423;-71
2022/10/05 11:28:12;;;;;;;3.50;1.88;;;17.30;99.90;;;;;;5113548;27;20442;-72
2022/10/05 11:30:41;;;;;;;4.10;1.90;;;17.30;99.90;;;;;;5108998;28;20493;-71
2022/10/05 11:33:49;;;;;;;3.50;1.80;;;17.30;99.90;;;;;;5115840;27;20830;-71
2022/10/05 11:36:27;;;;;;;3.53;1.90;;;17.30;99.90;;;;;;5094129;28;20498;-71
2022/10/05 11:39:04;;;;;;;2.72;2.20;;;17.30;99.90;;;;;;5126314;27;20406;-72
2022/10/05 11:41:40;;;;;;;5.18;2.03;;;17.30;99.90;;;;;;5115059;27;20990;-72
2022/10/05 11:44:30;;;;;;;4.38;2.28;;;17.30;99.90;;;;;;5115097;27;20515;-72
2022/10/05 11:47:20;;;;;;;4.18;2.30;;;17.30;99.90;;;;;;5130565;27;20463;-73
2022/10/05 11:50:16;;;;;;;3.50;2.20;;;17.30;99.90;;;;;;5128733;27;20443;-72
2022/10/05 11:52:50;;;;;;;3.22;2.00;;;17.30;99.90;;;;;;5118701;27;20441;-73
2022/10/05 11:55:22;;;;;;;4.28;2.35;;;17.20;99.90;;;;;;5109404;27;20463;-72
2022/10/05 11:58:01;;;;;;;3.80;2.13;;;17.20;99.90;;;;;;5123604;27;20391;-72
2022/10/05 12:00:34;;;;;;;5.63;2.30;;;17.10;99.90;;;;;;5107834;28;20438;-72
2022/10/05 12:03:28;;;;;;;3.90;2.10;;;17.10;99.90;;;;;;5108130;27;20459;-72
2022/10/05 12:06:11;;;;;;;4.20;2.13;;;17.10;99.90;;;;;;5109347;27;20412;-71
2022/10/05 12:08:58;;;;;;;3.90;2.10;;;17.10;99.90;;;;;;5109180;27;20420;-71
2022/10/05 12:11:45;;;;;;;3.33;1.80;;;17.10;99.90;;;;;;5096873;27;20404;-72
2022/10/05 12:14:32;;;;;;;3.50;1.75;;;17.00;99.90;;;;;;5109714;27;20960;-71
2022/10/05 12:17:31;;;;;;;3.30;1.60;;;17.00;99.90;;;;;;5108015;27;20960;-73
2022/10/05 12:20:01;;;;;;;3.95;1.95;;;17.00;99.90;;;;;;5099654;28;20404;-73
2022/10/05 12:22:37;;;;;;;2.73;1.60;;;17.00;99.90;;;;;;5110089;27;20412;-72
2022/10/05 12:25:05;;;;;;;3.63;1.95;;;17.00;99.90;;;;;;5108289;27;20466;-72
2022/10/05 12:27:37;;;;;;;3.75;1.60;;;17.00;99.90;;;;;;5108338;27;20441;-72
2022/10/05 12:30:25;;;;;;;3.38;2.00;;;17.00;99.90;;;;;;5098817;28;20934;-73
2022/10/05 12:33:02;;;;;;;2.63;2.03;;;17.00;99.90;;;;;;5109131;27;20530;-72
2022/10/05 12:35:40;;;;;;;4.63;2.28;;;17.00;99.90;;;;;;5104153;28;20448;-73
2022/10/05 12:38:33;;;;;;;4.80;2.67;;;17.00;99.90;;;;;;5107719;28;20492;-73
2022/10/05 12:41:08;;;;;;;3.30;2.73;;;17.10;99.90;;;;;;5100708;28;20447;-72
2022/10/05 12:43:54;;;;;;;4.50;2.80;;;17.10;99.90;;;;;;5105944;28;20428;-72
2022/10/05 12:46:43;;;;;;;4.80;3.10;;;17.00;99.90;;;;;;5107408;28;21100;-72
2022/10/05 12:49:24;;;;;;;4.60;2.97;;;17.10;99.90;;;;;;5106804;28;20824;-72
2022/10/05 12:52:12;;;;;;;4.03;3.13;;;17.10;99.90;;;;;;5107574;28;20443;-72
2022/10/05 12:55:04;;;;;;;4.47;3.10;;;17.10;99.90;;;;;;5102313;27;20467;-72
2022/10/05 12:57:52;;;;;;;3.97;2.85;;;17.10;99.90;;;;;;5109341;28;20894;-73
2022/10/05 13:00:19;;;;;;;4.35;3.03;;;17.10;99.90;;;;;;5116546;27;20794;-72
2022/10/05 13:02:53;;;;;;;4.67;2.90;;;17.10;99.90;;;;;;5107011;28;20778;-72
2022/10/05 13:05:48;;;;;;;3.65;2.75;;;17.10;99.90;;;;;;5109184;28;20898;-73
2022/10/05 13:08:31;;;;;;;4.65;2.78;;;17.10;99.90;;;;;;5097895;28;20497;-73
2022/10/05 13:11:28;;;;;;;4.50;2.53;;;17.10;99.90;;;;;;5119899;27;20844;-73
2022/10/05 13:14:04;;;;;;;3.43;2.40;;;17.10;99.90;;;;;;5100314;27;20796;-72
2022/10/05 13:16:35;;;;;;;4.20;2.42;;;17.10;99.90;;;;;;5128302;27;20395;-72
2022/10/05 13:19:13;;;;;;;3.17;2.58;;;17.10;99.90;;;;;;5116010;27;20417;-72
2022/10/05 13:21:46;;;;;;;4.90;2.60;;;17.10;99.90;;;;;;5126841;27;20407;-72
2022/10/05 13:24:21;;;;;;;7.13;2.60;;;17.10;99.90;;;;;;5105169;28;20436;-72
2022/10/05 13:27:02;;;;;;;5.70;2.53;;;17.10;99.90;;;;;;5121312;27;20468;-72
2022/10/05 13:29:41;;;;;;;6.75;2.35;;;17.10;99.90;;;;;;5128387;27;20904;-72
2022/10/05 13:32:33;;;;;;;6.50;2.50;;;17.10;99.90;;;;;;5126722;27;20422;-72
2022/10/05 13:35:25;;;;;;;4.80;2.70;;;17.10;99.90;;;;;;5127841;27;20398;-72
2022/10/05 13:37:51;;;;;;;3.55;2.22;;;17.20;99.90;;;;;;5109380;27;20781;-72
2022/10/05 13:40:23;;;;;;;5.70;2.43;;;17.30;99.90;;;;;;5119586;27;20412;-72
2022/10/05 13:43:16;;;;;;;4.35;2.13;;;17.30;99.90;;;;;;5119940;27;20502;-72
2022/10/05 13:45:50;;;;;;;5.72;2.15;;;17.40;99.90;;;;;;5107132;27;20399;-73
2022/10/05 13:48:44;;;;;;;4.47;1.90;;;17.50;99.90;;;;;;5109307;27;20915;-72
2022/10/05 13:51:15;;;;;;;3.78;2.00;;;17.70;99.90;;;;;;5110100;27;20457;-72
2022/10/05 13:54:03;;;;;;;4.22;1.90;;;17.70;99.90;;;;;;5119651;27;20553;-72
2022/10/05 13:56:32;;;;;;;4.25;2.15;;;17.70;99.90;;;;;;5105190;28;20431;-72
2022/10/05 13:59:15;;;;;;;3.85;2.00;;;17.70;99.90;;;;;;5112865;27;20433;-72
2022/10/05 14:02:14;;;;;;;5.78;2.15;;;17.60;99.90;;;;;;5119282;27;21118;-73
2022/10/05 14:04:56;;;;;;;4.13;2.30;;;17.60;99.90;;;;;;5125597;27;20514;-72
2022/10/05 14:07:35;;;;;;;4.30;2.08;;;17.70;99.90;;;;;;5117086;27;20498;-72